Time;durP1;ratioP1;P1;durP2;ratioP2;P2;SDS_P1;SDS_P2;PMS_P1;PMS_P2;Temp;Humidity;BMP_temperature;BMP_pressure;BME280_temperature;BME280_humidity;BME280_pressure;Samples;Min_cycle;Max_cycle;Signal;HPM_P1;HPM_P2
2024/04/03 00:00:21;;;;;;;;;;;13.60;35.00;15.30;97922.00;;;;5058668;28;1567;-89
2024/04/03 00:02:47;;;;;;;;;;;13.70;35.00;15.30;97961.00;;;;5058732;28;1802;-88
2024/04/03 00:05:14;;;;;;;;;;;13.60;34.90;15.20;97943.00;;;;5058740;28;1673;-88
2024/04/03 00:07:42;;;;;;;;;;;13.60;35.00;15.30;97913.00;;;;5053464;28;1755;-88
2024/04/03 00:10:09;;;;;;;;;;;13.60;35.10;15.30;97906.00;;;;5049944;28;1624;-88
2024/04/03 00:12:36;;;;;;;;;;;13.60;35.10;15.30;97887.00;;;;5057305;28;1772;-88
2024/04/03 00:15:03;;;;;;;;;;;13.60;35.60;15.30;97997.00;;;;5056396;28;1492;-88
2024/04/03 00:17:30;;;;;;;;;;;13.60;35.10;15.30;97949.00;;;;5050338;28;1972;-88
2024/04/03 00:19:56;;;;;;;;;;;13.60;35.10;15.30;97935.00;;;;5059925;28;1637;-89
2024/04/03 00:22:23;;;;;;;;;;;13.60;35.10;15.10;97900.00;;;;5068320;28;1446;-88
2024/04/03 00:24:51;;;;;;;;;;;13.60;35.10;15.30;97970.00;;;;5062160;28;1660;-88
2024/04/03 00:27:18;;;;;;;;;;;13.60;35.10;15.30;97915.00;;;;5080865;28;1584;-88
2024/04/03 00:29:45;;;;;;;;;;;13.60;35.10;15.30;97943.00;;;;5050340;28;1630;-88
2024/04/03 00:32:12;;;;;;;;;;;13.60;35.10;15.30;97919.00;;;;5055988;28;1443;-88
2024/04/03 00:34:38;;;;;;;;;;;13.60;35.10;15.30;97926.00;;;;5036616;28;1504;-88
2024/04/03 00:37:06;;;;;;;;;;;13.60;35.10;15.10;97949.00;;;;5056151;28;1898;-88
2024/04/03 00:39:32;;;;;;;;;;;13.50;35.00;15.30;97945.00;;;;5051213;28;1540;-88
2024/04/03 00:42:01;;;;;;;;;;;13.50;35.10;15.20;97976.00;;;;5056004;28;1727;-88
2024/04/03 00:44:27;;;;;;;;;;;13.60;35.20;15.20;97884.00;;;;5055406;28;1662;-88
2024/04/03 00:46:54;;;;;;;;;;;13.60;35.00;15.30;97879.00;;;;5055911;28;1668;-88
2024/04/03 00:49:20;;;;;;;;;;;13.60;35.10;15.20;97927.00;;;;5055815;28;1505;-88
2024/04/03 00:51:48;;;;;;;;;;;13.60;35.10;15.30;97853.00;;;;5056267;28;1558;-88
2024/04/03 00:54:14;;;;;;;;;;;13.50;35.00;15.30;97900.00;;;;5055552;28;1707;-88
2024/04/03 00:56:41;;;;;;;;;;;13.50;35.10;15.20;97893.00;;;;5055326;28;1786;-88
2024/04/03 00:59:09;;;;;;;;;;;13.50;35.00;15.30;97917.00;;;;5055632;28;1985;-88
2024/04/03 01:01:36;;;;;;;;;;;13.50;35.10;15.00;97964.00;;;;5055957;28;1557;-88
2024/04/03 01:04:02;;;;;;;;;;;13.50;35.00;15.30;97846.00;;;;5042535;28;1495;-88
2024/04/03 01:06:29;;;;;;;;;;;13.60;35.10;15.10;97888.00;;;;5055839;28;1518;-88
2024/04/03 01:08:57;;;;;;;;;;;13.60;35.10;15.30;97854.00;;;;5044868;28;1432;-88
2024/04/03 01:11:24;;;;;;;;;;;13.50;35.00;15.20;97961.00;;;;5054499;28;1424;-88
2024/04/03 01:13:50;;;;;;;;;;;13.50;35.00;15.20;97912.00;;;;5055607;28;1542;-88
2024/04/03 01:16:19;;;;;;;;;;;13.50;35.10;15.20;97853.00;;;;5058805;28;1920;-88
2024/04/03 01:18:45;;;;;;;;;;;13.50;35.10;15.20;97928.00;;;;5047430;28;1906;-88
2024/04/03 01:21:12;;;;;;;;;;;13.50;35.70;15.20;97831.00;;;;5055768;28;1797;-88
2024/04/03 01:23:38;;;;;;;;;;;13.50;35.00;15.20;97860.00;;;;5055691;28;1482;-88
2024/04/03 01:26:07;;;;;;;;;;;13.50;35.10;15.30;97845.00;;;;5055168;28;1645;-88
2024/04/03 01:28:34;;;;;;;;;;;13.50;35.10;15.20;97903.00;;;;5039644;28;1507;-88
2024/04/03 01:31:01;;;;;;;;;;;13.50;35.10;15.00;97929.00;;;;5055015;28;1552;-88
2024/04/03 01:33:27;;;;;;;;;;;13.50;35.60;15.00;97920.00;;;;5052354;28;1744;-88
2024/04/03 01:35:54;;;;;;;;;;;13.50;35.00;15.10;97896.00;;;;5056966;28;1676;-88
2024/04/03 01:38:25;;;;;;;;;;;13.50;35.00;15.10;97873.00;;;;5058713;28;1914;-88
2024/04/03 01:40:56;;;;;;;;;;;13.50;35.20;15.00;97912.00;;;;5055366;28;1482;-88
2024/04/03 01:43:23;;;;;;;;;;;13.50;35.10;15.20;97854.00;;;;5053109;28;1490;-88
2024/04/03 01:45:56;;;;;;;;;;;13.50;35.10;15.20;97892.00;;;;5051417;28;1715;-87
2024/04/03 01:48:22;;;;;;;;;;;13.50;35.10;15.20;97821.00;;;;5057840;28;1581;-87
2024/04/03 01:50:49;;;;;;;;;;;13.50;35.00;15.20;97821.00;;;;5057801;28;1712;-87
2024/04/03 01:53:15;;;;;;;;;;;13.50;35.10;15.20;97873.00;;;;5055179;28;1579;-87
2024/04/03 01:55:53;;;;;;;;;;;13.50;35.10;15.10;97908.00;;;;5061787;28;1600;-87
2024/04/03 01:58:21;;;;;;;;;;;13.50;35.20;15.20;97858.00;;;;5048684;28;1905;-87
2024/04/03 02:00:49;;;;;;;;;;;13.50;35.10;15.20;97876.00;;;;5067852;28;1676;-87
2024/04/03 02:03:15;;;;;;;;;;;13.50;35.10;15.10;97844.00;;;;5051914;28;1782;-87
2024/04/03 02:05:43;;;;;;;;;;;13.50;35.10;15.20;97850.00;;;;5065148;28;1471;-87
2024/04/03 02:08:10;;;;;;;;;;;13.50;35.10;15.20;97835.00;;;;5057708;28;1645;-87
2024/04/03 02:10:38;;;;;;;;;;;13.50;35.10;15.20;97860.00;;;;5054536;28;1625;-87
2024/04/03 02:13:04;;;;;;;;;;;13.50;35.10;15.20;97796.00;;;;5075343;28;1881;-87
2024/04/03 02:15:31;;;;;;;;;;;13.50;35.10;15.20;97807.00;;;;5056821;28;1789;-87
2024/04/03 02:17:59;;;;;;;;;;;13.50;35.10;15.20;97768.00;;;;5056209;28;1993;-87
2024/04/03 02:20:26;;;;;;;;;;;13.40;35.10;15.20;97860.00;;;;5059303;28;1779;-87
2024/04/03 02:22:52;;;;;;;;;;;13.50;35.10;15.20;97758.00;;;;5054349;28;1649;-87
2024/04/03 02:25:20;;;;;;;;;;;13.50;35.10;15.20;97822.00;;;;5058322;28;1647;-87
2024/04/03 02:27:46;;;;;;;;;;;13.50;35.20;15.10;97830.00;;;;5066245;28;1783;-87
2024/04/03 02:30:13;;;;;;;;;;;13.50;35.10;15.20;97816.00;;;;5058421;28;1649;-87
2024/04/03 02:32:39;;;;;;;;;;;13.40;35.10;15.20;97791.00;;;;5058734;28;1802;-87
2024/04/03 02:35:08;;;;;;;;;;;13.40;35.10;15.20;97809.00;;;;5058663;28;1419;-88
2024/04/03 02:37:34;;;;;;;;;;;13.40;35.10;15.20;97785.00;;;;5057449;28;1906;-87
2024/04/03 02:40:01;;;;;;;;;;;13.40;35.10;15.20;97806.00;;;;5057492;28;1650;-87
2024/04/03 02:43:05;;;;;;;;;;;13.40;35.00;15.20;97822.00;;;;5062734;28;1697;-87
2024/04/03 02:45:31;;;;;;;;;;;13.40;35.10;15.20;97818.00;;;;5060377;28;1716;-88
2024/04/03 02:47:59;;;;;;;;;;;13.40;35.10;15.10;97818.00;;;;5050194;28;1809;-87
2024/04/03 02:50:27;;;;;;;;;;;13.40;35.10;15.20;97766.00;;;;5053176;28;1572;-87
2024/04/03 02:52:54;;;;;;;;;;;13.40;35.10;15.10;97833.00;;;;5054970;28;1720;-87
2024/04/03 02:55:20;;;;;;;;;;;13.40;35.10;15.10;97808.00;;;;5061627;28;1641;-87
2024/04/03 02:57:47;;;;;;;;;;;13.40;35.10;15.10;97844.00;;;;5051413;28;1883;-87
2024/04/03 03:00:14;;;;;;;;;;;13.40;35.10;15.10;97846.00;;;;5052815;28;1613;-87
2024/04/03 03:02:41;;;;;;;;;;;13.40;35.10;15.20;97808.00;;;;5053986;28;1649;-87
2024/04/03 03:05:07;;;;;;;;;;;13.40;35.00;15.10;97746.00;;;;5053735;28;1514;-87
2024/04/03 03:07:36;;;;;;;;;;;13.40;35.10;15.10;97811.00;;;;5056637;28;1709;-87
2024/04/03 03:10:02;;;;;;;;;;;13.40;35.10;15.10;97827.00;;;;5059958;28;1486;-87
2024/04/03 03:12:29;;;;;;;;;;;13.40;35.10;15.20;97838.00;;;;5065167;28;1668;-87
2024/04/03 03:14:55;;;;;;;;;;;13.40;35.10;15.10;97789.00;;;;5060348;28;1820;-87
2024/04/03 03:17:22;;;;;;;;;;;13.40;35.10;14.90;97843.00;;;;5054754;28;1681;-87
2024/04/03 03:19:48;;;;;;;;;;;13.40;35.00;15.10;97749.00;;;;5074892;28;1709;-87
2024/04/03 03:22:15;;;;;;;;;;;13.40;35.00;15.20;97753.00;;;;5070310;28;1894;-87
2024/04/03 03:24:43;;;;;;;;;;;13.40;35.10;15.10;97736.00;;;;5051258;28;1804;-87
2024/04/03 03:27:10;;;;;;;;;;;13.40;35.10;15.10;97754.00;;;;5053865;28;1406;-87
2024/04/03 03:29:36;;;;;;;;;;;13.40;35.10;15.10;97807.00;;;;5053450;28;1568;-87
2024/04/03 03:32:04;;;;;;;;;;;13.40;35.10;15.10;97735.00;;;;5053137;28;1436;-88
2024/04/03 03:34:36;;;;;;;;;;;13.40;35.10;15.10;97781.00;;;;5064115;28;1708;-88
2024/04/03 03:37:05;;;;;;;;;;;13.40;35.20;15.10;97736.00;;;;5058593;28;1685;-87
2024/04/03 03:39:32;;;;;;;;;;;13.40;35.10;15.00;97754.00;;;;5064961;28;1923;-88
2024/04/03 03:42:00;;;;;;;;;;;13.40;35.10;15.10;97783.00;;;;5062828;28;1875;-87
2024/04/03 03:44:27;;;;;;;;;;;13.40;35.10;15.10;97744.00;;;;5060204;28;1715;-88
2024/04/03 03:46:54;;;;;;;;;;;13.40;35.10;15.10;97753.00;;;;5061159;28;1860;-87
2024/04/03 03:54:52;;;;;;;;;;;13.40;35.10;15.10;97759.00;;;;5061573;28;1563;-88
2024/04/03 03:57:23;;;;;;;;;;;13.40;35.10;15.10;97768.00;;;;5050273;28;1826;-87
2024/04/03 03:59:49;;;;;;;;;;;13.40;35.10;15.10;97709.00;;;;5057349;28;1979;-87
2024/04/03 04:02:16;;;;;;;;;;;13.40;35.00;15.10;97707.00;;;;5054198;28;1713;-87
2024/04/03 04:04:42;;;;;;;;;;;13.40;34.90;15.00;97808.00;;;;5053430;28;1768;-88
2024/04/03 04:07:10;;;;;;;;;;;13.40;35.00;15.10;97697.00;;;;5056390;28;1542;-87
2024/04/03 04:09:37;;;;;;;;;;;13.40;35.10;15.10;97757.00;;;;5053932;28;2079;-87
2024/04/03 04:12:04;;;;;;;;;;;13.40;35.00;15.10;97714.00;;;;5054891;28;1776;-87
2024/04/03 04:14:32;;;;;;;;;;;13.40;35.10;15.10;97717.00;;;;5056950;28;1893;-88
2024/04/03 04:17:00;;;;;;;;;;;13.40;35.70;15.10;97758.00;;;;5057176;28;1424;-88
2024/04/03 04:19:26;;;;;;;;;;;13.40;34.90;15.10;97735.00;;;;5051318;28;1972;-88
2024/04/03 04:22:08;;;;;;;;;;;13.40;34.90;15.10;97788.00;;;;5062725;28;1632;-89
2024/04/03 04:24:36;;;;;;;;;;;13.40;35.10;15.10;97733.00;;;;5055539;28;1684;-88
2024/04/03 04:27:05;;;;;;;;;;;13.40;35.00;15.10;97728.00;;;;5056509;28;1700;-89
2024/04/03 04:29:35;;;;;;;;;;;13.40;35.10;15.10;97682.00;;;;5051743;28;1853;-88
2024/04/03 04:32:03;;;;;;;;;;;13.40;35.10;15.10;97743.00;;;;5055636;28;1483;-88
2024/04/03 04:34:29;;;;;;;;;;;13.40;35.00;14.90;97706.00;;;;5057725;28;1631;-88
2024/04/03 04:36:58;;;;;;;;;;;13.40;35.00;15.00;97698.00;;;;5059224;28;1788;-87
2024/04/03 04:39:24;;;;;;;;;;;13.40;35.00;15.10;97805.00;;;;5056862;28;1981;-88
2024/04/03 04:41:51;;;;;;;;;;;13.40;35.10;15.10;97679.00;;;;5057013;28;1518;-88
2024/04/03 04:44:19;;;;;;;;;;;13.40;35.10;15.10;97693.00;;;;5059507;28;1680;-88
2024/04/03 04:46:49;;;;;;;;;;;13.40;35.10;15.10;97683.00;;;;5053143;28;1674;-88
2024/04/03 04:49:16;;;;;;;;;;;13.40;35.10;15.10;97727.00;;;;5058678;28;1673;-88
2024/04/03 04:51:43;;;;;;;;;;;13.40;35.10;15.10;97782.00;;;;5056984;28;1530;-88
2024/04/03 04:54:09;;;;;;;;;;;13.40;35.00;15.00;97672.00;;;;5057958;28;1940;-88
2024/04/03 04:56:37;;;;;;;;;;;13.40;35.00;15.10;97716.00;;;;5058710;28;1575;-88
2024/04/03 04:59:03;;;;;;;;;;;13.40;34.90;15.10;97721.00;;;;5060301;28;1902;-87
2024/04/03 05:01:38;;;;;;;;;;;13.40;35.00;15.10;97741.00;;;;5057389;28;1199;-88
2024/04/03 05:04:07;;;;;;;;;;;13.40;35.00;15.10;97715.00;;;;5056945;28;1415;-88
2024/04/03 05:06:36;;;;;;;;;;;13.40;35.00;15.10;97711.00;;;;5051968;28;1644;-88
2024/04/03 05:09:03;;;;;;;;;;;13.40;35.00;15.10;97719.00;;;;5059453;28;1650;-88
2024/04/03 05:11:30;;;;;;;;;;;13.40;35.00;15.10;97679.00;;;;5056840;28;1523;-88
2024/04/03 05:13:56;;;;;;;;;;;13.40;35.10;15.10;97751.00;;;;5057296;28;1786;-88
2024/04/03 05:16:24;;;;;;;;;;;13.30;35.00;15.10;97702.00;;;;5056463;28;1651;-87
2024/04/03 05:18:50;;;;;;;;;;;13.40;35.00;15.10;97745.00;;;;5056418;28;1906;-88
2024/04/03 05:21:22;;;;;;;;;;;13.40;35.10;15.10;97720.00;;;;5062643;28;1426;-88
2024/04/03 05:23:48;;;;;;;;;;;13.40;35.10;15.10;97805.00;;;;5059788;28;1438;-88
2024/04/03 05:26:16;;;;;;;;;;;13.30;35.00;15.10;97712.00;;;;5057039;28;1571;-88
2024/04/03 05:28:42;;;;;;;;;;;13.40;35.10;15.10;97722.00;;;;5046150;28;1632;-88
2024/04/03 05:31:11;;;;;;;;;;;13.40;35.00;15.10;97699.00;;;;5055097;28;1617;-88
2024/04/03 05:33:37;;;;;;;;;;;13.40;35.10;15.10;97743.00;;;;5062694;28;1513;-88
2024/04/03 05:36:05;;;;;;;;;;;13.40;35.10;15.10;97739.00;;;;5057058;28;1565;-88
2024/04/03 05:38:33;;;;;;;;;;;13.40;35.10;15.00;97753.00;;;;5054293;28;1991;-88
2024/04/03 05:41:00;;;;;;;;;;;13.30;35.00;15.10;97741.00;;;;5055907;28;1813;-88
2024/04/03 05:43:26;;;;;;;;;;;13.40;35.00;15.00;97698.00;;;;5060927;28;1783;-88
2024/04/03 05:45:55;;;;;;;;;;;13.40;35.00;15.10;97742.00;;;;5060464;28;1661;-88
2024/04/03 05:48:21;;;;;;;;;;;13.40;35.10;14.80;97736.00;;;;5061403;28;1752;-87
2024/04/03 05:50:48;;;;;;;;;;;13.30;35.00;15.10;97724.00;;;;5055391;28;1577;-87
2024/04/03 05:53:14;;;;;;;;;;;13.40;35.00;15.10;97729.00;;;;5060475;28;1463;-88
2024/04/03 05:55:43;;;;;;;;;;;13.40;35.00;15.10;97756.00;;;;5058485;28;1745;-88
2024/04/03 05:58:12;;;;;;;;;;;13.30;35.00;15.10;97728.00;;;;5048026;28;1965;-88
2024/04/03 06:00:39;;;;;;;;;;;13.40;35.10;15.10;97694.00;;;;5060289;28;1851;-88
2024/04/03 06:03:05;;;;;;;;;;;13.40;35.00;15.10;97673.00;;;;5058665;28;1683;-88
2024/04/03 06:05:39;;;;;;;;;;;13.40;35.00;15.10;97786.00;;;;5054525;28;1558;-88
2024/04/03 06:08:06;;;;;;;;;;;13.40;35.10;15.00;97750.00;;;;5060866;28;1512;-88
2024/04/03 06:10:33;;;;;;;;;;;13.40;35.00;15.00;97734.00;;;;5059722;28;1731;-88
2024/04/03 06:13:02;;;;;;;;;;;13.40;35.00;15.00;97747.00;;;;5062871;28;1797;-88
2024/04/03 06:15:28;;;;;;;;;;;13.40;35.10;15.00;97684.00;;;;5057427;28;1781;-89
2024/04/03 06:17:55;;;;;;;;;;;13.40;35.00;15.10;97719.00;;;;5052153;28;1696;-88
2024/04/03 06:20:22;;;;;;;;;;;13.40;35.00;15.00;97709.00;;;;5054913;28;1993;-88
2024/04/03 06:22:49;;;;;;;;;;;13.30;35.00;15.00;97685.00;;;;5060060;28;1676;-87
2024/04/03 06:25:19;;;;;;;;;;;13.40;35.00;15.00;97772.00;;;;5059781;28;1781;-88
2024/04/03 06:27:46;;;;;;;;;;;13.30;35.00;14.90;97748.00;;;;5060195;28;1479;-89
2024/04/03 06:30:16;;;;;;;;;;;13.40;35.00;15.00;97735.00;;;;5061013;28;1653;-89
2024/04/03 06:32:43;;;;;;;;;;;13.40;35.10;14.90;97789.00;;;;5064495;28;1532;-89
2024/04/03 06:35:19;;;;;;;;;;;13.40;35.00;15.10;97746.00;;;;5058889;28;1812;-89
2024/04/03 06:37:45;;;;;;;;;;;13.40;35.10;15.10;97703.00;;;;5072499;28;1534;-89
2024/04/03 06:40:14;;;;;;;;;;;13.40;34.90;15.10;97699.00;;;;5061928;28;1902;-89
2024/04/03 06:42:41;;;;;;;;;;;13.40;34.90;15.00;97761.00;;;;5055165;28;1843;-87
2024/04/03 06:45:09;;;;;;;;;;;13.40;34.90;15.10;97756.00;;;;5063345;28;1677;-89
2024/04/03 06:47:36;;;;;;;;;;;13.40;35.00;14.90;97702.00;;;;5058988;28;1893;-89
2024/04/03 06:50:04;;;;;;;;;;;13.40;35.00;15.10;97740.00;;;;5057589;28;1776;-89
2024/04/03 06:52:30;;;;;;;;;;;13.40;35.00;15.10;97741.00;;;;5060087;28;1645;-89
2024/04/03 06:55:06;;;;;;;;;;;13.40;35.00;15.10;97759.00;;;;5060535;28;1784;-89
2024/04/03 06:57:32;;;;;;;;;;;13.40;35.10;15.00;97708.00;;;;5058530;28;1514;-89
2024/04/03 07:00:03;;;;;;;;;;;13.40;34.90;15.10;97690.00;;;;5058252;28;1911;-89
2024/04/03 07:02:29;;;;;;;;;;;13.40;35.00;14.90;97787.00;;;;5056865;28;1847;-89
2024/04/03 07:04:58;;;;;;;;;;;13.40;34.90;14.90;97771.00;;;;5061966;28;1769;-89
2024/04/03 07:07:25;;;;;;;;;;;13.40;35.00;15.10;97749.00;;;;5053045;28;1617;-89
2024/04/03 07:09:52;;;;;;;;;;;13.40;34.90;15.10;97740.00;;;;5063961;28;1752;-89
2024/04/03 07:12:19;;;;;;;;;;;13.40;34.90;15.10;97799.00;;;;5058733;28;1820;-89
2024/04/03 07:14:47;;;;;;;;;;;13.40;34.90;15.10;97810.00;;;;5053919;28;1766;-89
2024/04/03 07:17:19;;;;;;;;;;;13.40;35.00;14.90;97722.00;;;;5056603;28;1528;-89
2024/04/03 07:20:10;;;;;;;;;;;13.40;34.90;15.10;97751.00;;;;5057403;28;1903;-89
2024/04/03 07:22:46;;;;;;;;;;;13.40;35.00;15.10;97801.00;;;;5059333;28;1778;-89
2024/04/03 07:25:19;;;;;;;;;;;13.40;35.10;15.10;97796.00;;;;5064992;28;1534;-89
2024/04/03 07:28:10;;;;;;;;;;;13.40;35.10;15.10;97762.00;;;;5067566;28;1634;-89
2024/04/03 07:30:37;;;;;;;;;;;13.40;35.10;15.10;97760.00;;;;5057170;28;1658;-89
2024/04/03 07:33:04;;;;;;;;;;;13.40;35.00;15.10;97722.00;;;;5057115;28;1634;-89
2024/04/03 07:35:32;;;;;;;;;;;13.40;35.00;15.00;97810.00;;;;5046423;28;1641;-91
2024/04/03 07:38:02;;;;;;;;;;;13.40;34.90;15.00;97774.00;;;;5054841;28;1657;-90
2024/04/03 07:40:30;;;;;;;;;;;13.30;35.00;14.80;97733.00;;;;5056877;28;1901;-90
2024/04/03 07:42:56;;;;;;;;;;;13.40;35.00;14.90;97767.00;;;;5051277;28;1673;-89
2024/04/03 07:45:27;;;;;;;;;;;13.40;34.90;15.10;97776.00;;;;5041004;28;1710;-91
2024/04/03 07:48:01;;;;;;;;;;;13.30;35.10;15.10;97771.00;;;;5046725;28;1505;-88
2024/04/03 07:50:37;;;;;;;;;;;13.30;35.00;15.10;97729.00;;;;5051343;28;1448;-89
2024/04/03 07:53:07;;;;;;;;;;;13.40;35.00;14.90;97804.00;;;;5060045;28;1629;-89
2024/04/03 07:55:37;;;;;;;;;;;13.40;35.00;15.10;97796.00;;;;5081497;28;1629;-89
2024/04/03 07:58:03;;;;;;;;;;;13.40;34.90;15.10;97753.00;;;;5058180;28;1645;-89
2024/04/03 08:00:30;;;;;;;;;;;13.40;35.00;15.10;97768.00;;;;5058858;28;1910;-87
2024/04/03 08:02:57;;;;;;;;;;;13.40;34.90;14.90;97797.00;;;;5058731;28;1626;-89
2024/04/03 08:05:24;;;;;;;;;;;13.40;34.90;14.80;97791.00;;;;5056805;28;1732;-88
2024/04/03 08:08:12;;;;;;;;;;;13.40;34.90;15.10;97771.00;;;;5059737;28;1853;-89
2024/04/03 08:10:45;;;;;;;;;;;13.50;35.00;15.10;97777.00;;;;5078063;28;1676;-89
2024/04/03 08:13:28;;;;;;;;;;;13.40;35.00;15.10;97817.00;;;;5057013;28;1578;-91
2024/04/03 08:16:03;;;;;;;;;;;13.50;35.00;15.10;97786.00;;;;5057717;28;1676;-88
2024/04/03 08:18:30;;;;;;;;;;;13.50;35.00;15.10;97709.00;;;;5051511;28;1708;-86
2024/04/03 08:21:02;;;;;;;;;;;13.50;34.90;15.10;97776.00;;;;5045229;28;1910;-85
2024/04/03 08:23:30;;;;;;;;;;;13.50;35.00;15.10;97774.00;;;;5054225;28;1705;-85
2024/04/03 08:26:05;;;;;;;;;;;13.50;35.00;15.10;97755.00;;;;5052317;28;1641;-86
2024/04/03 08:28:31;;;;;;;;;;;13.50;35.00;15.10;97790.00;;;;5057941;28;1543;-85
2024/04/03 08:30:58;;;;;;;;;;;13.40;35.00;15.10;97803.00;;;;5055650;28;1820;-87
2024/04/03 08:33:24;;;;;;;;;;;13.50;35.00;15.20;97785.00;;;;5062411;28;1795;-86
2024/04/03 08:35:58;;;;;;;;;;;13.50;35.00;15.10;97807.00;;;;5061379;28;1746;-86
2024/04/03 08:38:25;;;;;;;;;;;13.50;35.00;15.10;97820.00;;;;5055273;28;1701;-86
2024/04/03 08:40:56;;;;;;;;;;;13.40;34.90;15.10;97768.00;;;;5049554;28;1906;-86
2024/04/03 08:43:24;;;;;;;;;;;13.50;35.10;15.10;97719.00;;;;5056634;28;1515;-87
2024/04/03 08:45:53;;;;;;;;;;;13.40;35.10;15.10;97734.00;;;;5055416;28;1644;-86
2024/04/03 08:48:21;;;;;;;;;;;13.40;34.90;15.10;97788.00;;;;5065525;28;1403;-85
2024/04/03 08:50:50;;;;;;;;;;;13.40;35.10;15.10;97799.00;;;;5059419;28;1653;-86
2024/04/03 08:53:17;;;;;;;;;;;13.40;35.10;15.00;97799.00;;;;5060526;28;1591;-86
2024/04/03 08:55:46;;;;;;;;;;;13.40;35.00;15.10;97791.00;;;;5045098;28;1641;-86
2024/04/03 08:58:21;;;;;;;;;;;13.40;35.00;15.10;97798.00;;;;5060483;28;1665;-87
2024/04/03 09:00:49;;;;;;;;;;;13.50;35.10;15.10;97791.00;;;;5060040;28;1993;-86
2024/04/03 09:03:17;;;;;;;;;;;13.50;35.10;15.10;97832.00;;;;5059452;28;1522;-85
2024/04/03 09:05:44;;;;;;;;;;;13.40;35.10;15.10;97789.00;;;;5076075;28;1585;-86
2024/04/03 09:08:10;;;;;;;;;;;13.50;35.00;15.00;97735.00;;;;5074632;28;1704;-86
2024/04/03 09:10:43;;;;;;;;;;;13.40;34.90;15.10;97800.00;;;;5055037;28;1720;-84
2024/04/03 09:13:10;;;;;;;;;;;13.50;35.10;15.10;97800.00;;;;5051892;28;1649;-86
2024/04/03 09:15:41;;;;;;;;;;;13.50;35.00;14.90;97798.00;;;;5064019;28;1811;-84
2024/04/03 09:18:09;;;;;;;;;;;13.50;35.10;15.20;97790.00;;;;5059327;28;1673;-85
2024/04/03 09:20:39;;;;;;;;;;;13.50;35.00;15.20;97798.00;;;;5059429;28;1906;-85
2024/04/03 09:23:10;;;;;;;;;;;13.50;35.00;15.20;97802.00;;;;5059138;28;1640;-85
2024/04/03 09:25:38;;;;;;;;;;;13.50;35.00;15.20;97817.00;;;;5057848;28;1777;-86
2024/04/03 09:28:05;;;;;;;;;;;13.50;34.90;15.20;97747.00;;;;5053290;28;1573;-86
2024/04/03 09:30:48;;;;;;;;;;;13.50;35.50;15.20;97805.00;;;;5061532;28;1717;-86
2024/04/03 09:33:18;;;;;;;;;;;13.50;34.90;15.20;97797.00;;;;5061451;28;1509;-85
2024/04/03 09:35:53;;;;;;;;;;;13.50;34.90;15.20;97755.00;;;;5058422;28;1827;-85
2024/04/03 09:38:19;;;;;;;;;;;13.50;34.80;15.20;97810.00;;;;5058474;28;1629;-85
2024/04/03 09:40:48;;;;;;;;;;;13.50;34.80;15.20;97737.00;;;;5054019;28;1914;-85
2024/04/03 09:43:18;;;;;;;;;;;13.50;34.80;15.20;97811.00;;;;5057626;28;1777;-85
2024/04/03 09:45:51;;;;;;;;;;;13.50;34.90;15.20;97800.00;;;;5057501;28;1598;-85
2024/04/03 09:48:27;;;;;;;;;;;13.50;34.80;15.20;97790.00;;;;5059291;28;1656;-85
2024/04/03 09:50:54;;;;;;;;;;;13.50;34.90;15.20;97788.00;;;;5052645;28;1661;-84
2024/04/03 09:53:24;;;;;;;;;;;13.50;34.80;15.20;97811.00;;;;5054275;28;1781;-84
2024/04/03 09:55:55;;;;;;;;;;;13.50;34.80;15.20;97829.00;;;;5054692;28;1630;-84
2024/04/03 09:58:26;;;;;;;;;;;13.60;35.00;15.20;97793.00;;;;5051230;28;1690;-84
2024/04/03 10:00:59;;;;;;;;;;;13.50;34.80;15.20;97798.00;;;;5057501;28;1898;-85
2024/04/03 10:03:27;;;;;;;;;;;13.50;34.90;15.10;97765.00;;;;5055932;28;1634;-85
2024/04/03 10:05:59;;;;;;;;;;;13.50;34.90;15.20;97771.00;;;;5054656;28;1681;-85
2024/04/03 10:08:32;;;;;;;;;;;13.50;35.00;15.30;97755.00;;;;5058393;28;1837;-85
2024/04/03 10:10:59;;;;;;;;;;;13.50;34.90;15.30;97800.00;;;;5059024;28;1657;-84
2024/04/03 10:13:29;;;;;;;;;;;13.50;34.80;15.30;97789.00;;;;5059997;28;1795;-85
2024/04/03 10:16:01;;;;;;;;;;;13.50;34.90;15.30;97774.00;;;;5057550;28;1429;-85
2024/04/03 10:18:29;;;;;;;;;;;13.50;34.90;15.30;97756.00;;;;5058928;28;1646;-84
2024/04/03 10:20:56;;;;;;;;;;;13.60;35.00;15.30;97730.00;;;;5059559;28;1902;-84
2024/04/03 10:23:24;;;;;;;;;;;13.50;34.90;15.30;97735.00;;;;5062980;28;1697;-85
2024/04/03 10:25:51;;;;;;;;;;;13.60;35.00;15.20;97782.00;;;;5057420;28;1634;-83
2024/04/03 10:28:18;;;;;;;;;;;13.60;34.90;15.30;97759.00;;;;5049155;28;1648;-85
2024/04/03 10:30:45;;;;;;;;;;;13.60;35.00;15.30;97791.00;;;;5056875;28;1742;-85
2024/04/03 10:33:14;;;;;;;;;;;13.50;34.90;15.30;97799.00;;;;5056325;28;1800;-84
2024/04/03 10:35:41;;;;;;;;;;;13.50;35.00;15.30;97745.00;;;;5061919;28;1772;-86
2024/04/03 10:38:07;;;;;;;;;;;13.50;34.90;15.30;97720.00;;;;5072725;28;1665;-86
2024/04/03 10:40:34;;;;;;;;;;;13.60;35.50;15.30;97799.00;;;;5075087;28;1890;-85
2024/04/03 10:43:01;;;;;;;;;;;13.60;34.90;15.30;97843.00;;;;5077039;28;1831;-86
2024/04/03 10:45:28;;;;;;;;;;;13.60;34.90;15.30;97792.00;;;;5071971;28;1668;-85
2024/04/03 10:47:54;;;;;;;;;;;13.60;34.90;15.30;97786.00;;;;5072455;28;1888;-85
2024/04/03 10:50:23;;;;;;;;;;;13.60;34.90;15.40;97803.00;;;;5061498;28;1502;-84
2024/04/03 10:52:50;;;;;;;;;;;13.60;34.90;15.40;97771.00;;;;5046769;28;1726;-84
2024/04/03 10:55:20;;;;;;;;;;;13.60;34.90;15.40;97809.00;;;;5059234;28;1626;-84
2024/04/03 10:57:47;;;;;;;;;;;13.60;34.90;15.40;97780.00;;;;5047098;28;1639;-85
2024/04/03 11:00:15;;;;;;;;;;;13.60;35.00;15.40;97793.00;;;;5044362;28;1987;-85
2024/04/03 11:02:43;;;;;;;;;;;13.60;34.90;15.40;97799.00;;;;5050505;28;1835;-85
2024/04/03 11:05:12;;;;;;;;;;;13.60;34.90;15.40;97774.00;;;;5058286;28;1725;-84
2024/04/03 11:07:42;;;;;;;;;;;13.60;34.90;15.40;97799.00;;;;5052175;28;1774;-84
2024/04/03 11:10:10;;;;;;;;;;;13.70;34.90;15.40;97775.00;;;;5056486;28;1855;-84
2024/04/03 11:12:37;;;;;;;;;;;13.70;34.90;15.40;97793.00;;;;5049041;28;1619;-84
2024/04/03 11:15:05;;;;;;;;;;;13.70;34.90;15.40;97786.00;;;;5056641;28;1708;-84
2024/04/03 11:17:31;;;;;;;;;;;13.70;34.90;15.40;97783.00;;;;5050678;28;1702;-84
2024/04/03 11:19:58;;;;;;;;;;;13.70;34.80;15.40;97739.00;;;;5059260;28;1898;-84
2024/04/03 11:22:24;;;;;;;;;;;13.70;34.80;15.40;97748.00;;;;5056101;28;1712;-84
2024/04/03 11:24:55;;;;;;;;;;;13.70;34.80;15.40;97772.00;;;;5051961;28;1638;-83
2024/04/03 11:27:21;;;;;;;;;;;13.70;34.80;15.40;97752.00;;;;5050875;28;1816;-84
2024/04/03 11:29:48;;;;;;;;;;;13.70;34.80;15.40;97769.00;;;;5056098;28;1820;-84
2024/04/03 11:32:16;;;;;;;;;;;13.70;34.80;15.40;97760.00;;;;5053431;28;1864;-84
2024/04/03 11:34:43;;;;;;;;;;;13.70;34.80;15.40;97758.00;;;;5056358;28;1426;-84
2024/04/03 11:37:09;;;;;;;;;;;13.70;35.00;15.40;97775.00;;;;5057542;28;1618;-83
2024/04/03 11:39:36;;;;;;;;;;;13.70;34.80;15.40;97774.00;;;;5049148;28;1983;-83
2024/04/03 11:42:03;;;;;;;;;;;13.70;34.70;15.40;97746.00;;;;5052842;28;1562;-84
2024/04/03 11:44:31;;;;;;;;;;;13.70;34.80;15.30;97784.00;;;;5051939;28;1836;-84
2024/04/03 11:46:59;;;;;;;;;;;13.70;34.80;15.40;97760.00;;;;5051743;28;1630;-84
2024/04/03 11:49:26;;;;;;;;;;;13.70;34.80;15.40;97755.00;;;;5053979;28;1803;-84
2024/04/03 11:51:52;;;;;;;;;;;13.70;34.80;15.40;97766.00;;;;5056544;28;1686;-83
2024/04/03 11:54:19;;;;;;;;;;;13.70;34.80;15.40;97741.00;;;;5053832;28;1895;-82
2024/04/03 11:56:45;;;;;;;;;;;13.70;34.70;15.40;97740.00;;;;5054777;28;1520;-84
2024/04/03 11:59:13;;;;;;;;;;;13.70;34.70;15.40;97741.00;;;;5054511;28;1650;-84
2024/04/03 12:01:39;;;;;;;;;;;13.70;34.80;15.40;97760.00;;;;5050303;28;1975;-83
2024/04/03 12:04:06;;;;;;;;;;;13.70;34.70;15.40;97721.00;;;;5052837;28;1502;-84
2024/04/03 12:06:38;;;;;;;;;;;13.70;34.70;15.40;97739.00;;;;5053710;28;1816;-83
2024/04/03 12:09:06;;;;;;;;;;;13.70;34.80;15.30;97743.00;;;;5055218;28;1651;-83
2024/04/03 12:11:32;;;;;;;;;;;13.70;34.80;15.40;97728.00;;;;5054731;28;1631;-84
2024/04/03 12:14:00;;;;;;;;;;;13.70;34.80;15.40;97728.00;;;;5055056;28;1825;-84
2024/04/03 12:16:30;;;;;;;;;;;13.80;34.90;15.40;97677.00;;;;5051714;28;1665;-85
2024/04/03 12:19:12;;;;;;;;;;;13.70;34.80;15.40;97682.00;;;;5055124;28;1831;-84